createdAt,value
2023-01-12T00:02:10.387Z,100712.78
2023-01-12T00:04:38.257Z,100718.56
2023-01-12T00:07:06.887Z,100712.81
2023-01-12T00:09:34.599Z,100718.59
2023-01-12T00:12:03.743Z,100708.66
2023-01-12T00:14:31.091Z,100717.78
2023-01-12T00:16:59.799Z,100721.91
2023-01-12T00:19:27.467Z,100716.94
2023-01-12T00:21:57.364Z,100721.06
2023-01-12T00:24:26.214Z,100710.31
2023-01-12T00:26:54.806Z,100715.31
2023-01-12T00:29:23.092Z,100701.25
2023-01-12T00:31:50.372Z,100706.16
2023-01-12T00:34:19.358Z,100706.19
2023-01-12T00:36:48.005Z,100709.50
2023-01-12T00:39:16.229Z,100717.78
2023-01-12T00:42:03.830Z,100726.03
2023-01-12T00:44:50.157Z,100694.63
2023-01-12T00:47:18.336Z,100711.13
2023-01-12T00:49:47.455Z,100700.41
2023-01-12T00:52:29.394Z,100704.53
2023-01-12T00:54:58.570Z,100718.59
2023-01-12T00:57:26.509Z,100699.59
2023-01-12T00:59:58.361Z,100679.75
2023-01-12T01:02:26.581Z,100692.97
2023-01-12T01:04:55.804Z,100683.88
2023-01-12T01:07:23.644Z,100692.97
2023-01-12T01:09:51.616Z,100688.03
2023-01-12T01:12:19.550Z,100693.78
2023-01-12T01:14:47.355Z,100691.31
2023-01-12T01:17:14.995Z,100699.56
2023-01-12T01:19:43.787Z,100702.00
2023-01-12T01:22:13.262Z,100700.41
2023-01-12T01:24:41.727Z,100695.41
2023-01-12T01:27:09.026Z,100694.59
2023-01-12T01:29:36.782Z,100680.56
2023-01-12T01:32:04.294Z,100690.50
2023-01-12T01:34:50.086Z,100689.69
2023-01-12T01:37:20.200Z,100689.66
2023-01-12T01:39:47.464Z,100676.44
2023-01-12T01:42:28.450Z,100669.81
2023-01-12T01:44:58.854Z,100646.69
2023-01-12T01:47:35.254Z,100653.28
2023-01-12T01:50:07.767Z,100638.44
2023-01-12T01:52:40.002Z,100659.91
2023-01-12T01:55:11.374Z,100643.41
2023-01-12T01:57:46.825Z,100649.97
2023-01-12T02:00:15.101Z,100664.84
2023-01-12T02:02:46.512Z,100661.56
2023-01-12T02:05:16.318Z,100658.19
2023-01-12T02:07:45.178Z,100647.47
2023-01-12T02:10:12.644Z,100643.38
2023-01-12T02:12:59.331Z,100645.03
2023-01-12T02:15:47.492Z,100637.56
2023-01-12T02:18:22.205Z,100639.19
2023-01-12T02:21:01.601Z,100623.53
2023-01-12T02:24:17.365Z,100639.22
2023-01-12T02:27:23.510Z,100645.84
2023-01-12T02:30:24.255Z,100644.16
2023-01-12T02:33:02.962Z,100637.56
2023-01-12T02:35:36.952Z,100638.41
2023-01-12T02:38:15.465Z,100637.56
2023-01-12T02:40:49.052Z,100633.44
2023-01-12T02:43:21.774Z,100638.38
2023-01-12T02:45:55.158Z,100599.56
2023-01-12T02:48:29.039Z,100622.69
2023-01-12T02:51:01.615Z,100634.25
2023-01-12T02:53:33.279Z,100622.69
2023-01-12T02:56:04.042Z,100606.19
2023-01-12T02:58:35.868Z,100608.69
2023-01-12T03:01:04.815Z,100625.19
2023-01-12T03:03:35.257Z,100628.47
2023-01-12T03:06:02.598Z,100630.13
2023-01-12T03:08:32.542Z,100621.88
2023-01-12T03:11:21.958Z,100616.91
2023-01-12T03:13:51.320Z,100634.31
2023-01-12T03:16:21.821Z,100636.78
2023-01-12T03:18:54.631Z,100621.06
2023-01-12T03:21:28.650Z,100621.91
2023-01-12T03:24:00.927Z,100616.13
2023-01-12T03:26:31.313Z,100617.81
2023-01-12T03:29:04.177Z,100626.88
2023-01-12T03:31:32.738Z,100645.06
2023-01-12T03:34:02.076Z,100645.03
2023-01-12T03:36:40.869Z,100630.94
2023-01-12T03:39:16.855Z,100638.38
2023-01-12T03:41:55.021Z,100614.47
2023-01-12T03:44:30.956Z,100636.78
2023-01-12T03:47:02.191Z,100637.63
2023-01-12T03:49:35.118Z,100643.41
2023-01-12T03:52:06.088Z,100643.44
2023-01-12T03:54:37.616Z,100628.53
2023-01-12T03:57:06.660Z,100616.97
2023-01-12T03:59:35.287Z,100621.09
2023-01-12T04:02:03.452Z,100621.09
2023-01-12T04:04:32.388Z,100614.47
2023-01-12T04:07:01.747Z,100595.47
2023-01-12T04:09:29.339Z,100602.03
2023-01-12T04:12:11.641Z,100591.28
2023-01-12T04:14:39.851Z,100593.81
2023-01-12T04:17:08.441Z,100583.91
2023-01-12T04:19:37.259Z,100610.34
2023-01-12T04:22:23.326Z,100600.41
2023-01-12T04:24:50.567Z,100611.16
2023-01-12T04:27:18.485Z,100608.69
2023-01-12T04:29:45.843Z,100602.84
2023-01-12T04:32:13.251Z,100599.56
2023-01-12T04:34:41.911Z,100599.56
2023-01-12T04:37:09.322Z,100592.97
2023-01-12T04:39:36.588Z,100592.94
2023-01-12T04:42:04.876Z,100610.31
2023-01-12T04:44:32.543Z,100616.94
2023-01-12T04:46:59.756Z,100593.03
2023-01-12T04:49:27.268Z,100603.75
2023-01-12T04:51:55.875Z,100597.97
2023-01-12T04:54:23.239Z,100597.97
2023-01-12T04:56:50.760Z,100582.25
2023-01-12T04:59:18.413Z,100590.50
2023-01-12T05:01:45.864Z,100588.84
2023-01-12T05:04:15.117Z,100595.47
2023-01-12T05:06:42.418Z,100596.31
2023-01-12T05:09:30.086Z,100588.88
2023-01-12T05:11:59.912Z,100593.81
2023-01-12T05:14:27.428Z,100581.44
2023-01-12T05:16:55.032Z,100583.03
2023-01-12T05:19:22.310Z,100591.34
2023-01-12T05:21:49.539Z,100591.34
2023-01-12T05:24:18.808Z,100600.44
2023-01-12T05:26:46.168Z,100593.00
2023-01-12T05:29:13.634Z,100609.50
2023-01-12T05:31:40.967Z,100602.09
2023-01-12T05:34:08.311Z,100588.06
2023-01-12T05:36:35.576Z,100596.34
2023-01-12T05:39:04.959Z,100586.44
2023-01-12T05:41:33.972Z,100593.03
2023-01-12T05:44:01.343Z,100600.50
2023-01-12T05:46:31.092Z,100599.69
2023-01-12T05:48:59.151Z,100609.56
2023-01-12T05:51:27.360Z,100591.31
2023-01-12T05:53:55.263Z,100595.53
2023-01-12T05:56:25.978Z,100603.81
2023-01-12T05:58:56.085Z,100599.72
2023-01-12T06:01:23.905Z,100594.75
2023-01-12T06:03:52.536Z,100593.91
2023-01-12T06:06:21.614Z,100603.84
2023-01-12T06:08:52.173Z,100593.94
2023-01-12T06:11:38.509Z,100593.94
2023-01-12T06:14:08.599Z,100591.44
2023-01-12T06:16:38.502Z,100589.78
2023-01-12T06:19:06.095Z,100593.94
2023-01-12T06:21:34.152Z,100594.78
2023-01-12T06:24:01.876Z,100593.94
2023-01-12T06:26:29.468Z,100593.09
2023-01-12T06:28:57.161Z,100591.47
2023-01-12T06:31:25.841Z,100589.78
2023-01-12T06:33:53.249Z,100595.56
2023-01-12T06:36:20.501Z,100585.63
2023-01-12T06:38:47.859Z,100594.75
2023-01-12T06:41:34.012Z,100595.56
2023-01-12T06:44:01.558Z,100595.56
2023-01-12T06:46:30.788Z,100593.91
2023-01-12T06:48:59.334Z,100588.94
2023-01-12T06:51:27.602Z,100594.72
2023-01-12T06:53:55.315Z,100596.38
2023-01-12T06:56:23.366Z,100616.19
2023-01-12T06:58:50.733Z,100585.59
2023-01-12T07:01:18.696Z,100593.88
2023-01-12T07:03:47.785Z,100584.75
2023-01-12T07:06:15.213Z,100598.81
2023-01-12T07:08:43.537Z,100585.59
2023-01-12T07:11:15.222Z,100578.97
2023-01-12T07:13:42.713Z,100576.47
2023-01-12T07:16:10.160Z,100590.53
2023-01-12T07:18:37.463Z,100575.66
2023-01-12T07:21:07.327Z,100577.28
2023-01-12T07:23:35.090Z,100569.06
2023-01-12T07:26:02.597Z,100561.59
2023-01-12T07:28:31.605Z,100546.72
2023-01-12T07:31:00.916Z,100571.50
2023-01-12T07:33:28.305Z,100562.41
2023-01-12T07:35:58.828Z,100551.72
2023-01-12T07:38:28.702Z,100550.84
2023-01-12T07:40:59.144Z,100559.91
2023-01-12T07:43:26.822Z,100553.28
2023-01-12T07:45:56.275Z,100545.88
2023-01-12T07:48:25.187Z,100547.50
2023-01-12T07:50:52.712Z,100547.50
2023-01-12T07:53:20.427Z,100559.03
2023-01-12T07:55:49.037Z,100553.31
2023-01-12T07:58:19.273Z,100554.91
2023-01-12T08:00:46.488Z,100554.06
2023-01-12T08:03:16.995Z,100555.69
2023-01-12T08:05:44.585Z,100549.06
2023-01-12T08:08:11.986Z,100544.06
2023-01-12T08:10:39.538Z,100546.50
2023-01-12T08:13:08.390Z,100551.50
2023-01-12T08:15:38.687Z,100548.97
2023-01-12T08:18:12.557Z,100527.56
2023-01-12T08:20:40.656Z,100539.91
2023-01-12T08:23:11.697Z,100552.34
2023-01-12T08:25:44.954Z,100521.75
2023-01-12T08:28:17.864Z,100524.09
2023-01-12T08:30:47.642Z,100526.59
2023-01-12T08:33:16.159Z,100520.75
2023-01-12T08:35:46.501Z,100525.69
2023-01-12T08:38:14.001Z,100538.91
2023-01-12T08:40:59.745Z,100529.75
2023-01-12T08:43:47.599Z,100530.56
2023-01-12T08:46:15.231Z,100527.25
2023-01-12T08:48:42.744Z,100537.28
2023-01-12T08:51:10.064Z,100529.84
2023-01-12T08:53:37.509Z,100520.69
2023-01-12T08:56:05.469Z,100515.69
2023-01-12T08:58:34.153Z,100517.41
2023-01-12T09:01:08.806Z,100513.22
2023-01-12T09:03:36.458Z,100501.75
2023-01-12T09:06:11.543Z,100504.31
2023-01-12T09:08:39.200Z,100494.25
2023-01-12T09:11:07.039Z,100498.28
2023-01-12T09:13:35.975Z,100481.66
2023-01-12T09:16:12.161Z,100489.81
2023-01-12T09:18:40.977Z,100483.19
2023-01-12T09:21:10.199Z,100485.44
2023-01-12T09:23:38.340Z,100472.19
2023-01-12T09:26:06.888Z,100472.03
2023-01-12T09:28:36.794Z,100467.16
2023-01-12T09:31:06.789Z,100422.66
2023-01-12T09:33:34.867Z,100455.47
2023-01-12T09:36:03.884Z,100450.28
2023-01-12T09:38:34.895Z,100457.66
2023-01-12T09:41:08.652Z,100460.97
2023-01-12T09:43:56.492Z,100449.38
2023-01-12T09:47:01.729Z,100454.16
2023-01-12T09:49:33.457Z,100452.47
2023-01-12T09:52:10.381Z,100445.06
2023-01-12T09:54:37.774Z,100430.25
2023-01-12T09:57:28.778Z,100430.25
2023-01-12T10:00:03.497Z,100441.75
2023-01-12T10:02:45.611Z,100431.16
2023-01-12T10:05:20.489Z,100442.47
2023-01-12T10:07:50.353Z,100447.50
2023-01-12T10:10:17.875Z,100432.50
2023-01-12T10:12:52.319Z,100411.97
2023-01-12T10:15:31.376Z,100427.47
2023-01-12T10:18:04.183Z,100429.81
2023-01-12T10:20:37.526Z,100423.88
2023-01-12T10:23:11.583Z,100426.06
2023-01-12T10:25:42.267Z,100421.69
2023-01-12T10:28:17.261Z,100420.63
2023-01-12T10:30:46.395Z,100424.75
2023-01-12T10:33:18.932Z,100404.34
2023-01-12T10:35:56.105Z,100418.44
2023-01-12T10:38:29.864Z,100417.41
2023-01-12T10:41:17.345Z,100411.31
2023-01-12T10:44:03.679Z,100400.25
2023-01-12T10:46:33.897Z,100397.34
2023-01-12T10:49:16.682Z,100402.44
2023-01-12T10:51:55.148Z,100396.84
2023-01-12T10:54:25.887Z,100399.81
2023-01-12T10:56:57.547Z,100380.56
2023-01-12T10:59:29.465Z,100386.38
2023-01-12T11:02:14.094Z,100391.88
2023-01-12T11:04:43.968Z,100380.91
2023-01-12T11:07:14.120Z,100365.38
2023-01-12T11:09:42.909Z,100371.06
2023-01-12T11:12:23.744Z,100381.19
2023-01-12T11:15:03.189Z,100372.94
2023-01-12T11:17:49.921Z,100366.50
2023-01-12T11:20:23.650Z,100373.91
2023-01-12T11:22:54.787Z,100367.97
2023-01-12T11:25:24.634Z,100380.13
2023-01-12T11:27:58.766Z,100365.88
2023-01-12T11:30:33.223Z,100363.41
2023-01-12T11:33:10.619Z,100352.81
2023-01-12T11:35:41.919Z,100361.53
2023-01-12T11:38:16.130Z,100363.47
2023-01-12T11:40:44.392Z,100365.88
2023-01-12T11:43:44.461Z,100364.56
2023-01-12T11:46:21.237Z,100355.53
2023-01-12T11:48:59.502Z,100336.63
2023-01-12T11:51:27.658Z,100352.03
2023-01-12T11:53:55.516Z,100353.75
2023-01-12T11:56:51.002Z,100355.22
2023-01-12T11:59:24.696Z,100354.34
2023-01-12T12:02:01.863Z,100359.25
2023-01-12T12:04:51.487Z,100343.88
2023-01-12T12:07:34.888Z,100342.13
2023-01-12T12:10:18.783Z,100342.63
2023-01-12T12:13:06.820Z,100350.03
2023-01-12T12:15:46.097Z,100328.94
2023-01-12T12:18:24.648Z,100353.66
2023-01-12T12:21:08.566Z,100339.69
2023-01-12T12:23:44.319Z,100347.47
2023-01-12T12:26:19.011Z,100346.19
2023-01-12T12:28:59.907Z,100343.16
2023-01-12T12:31:48.971Z,100334.13
2023-01-12T12:34:57.606Z,100329.44
2023-01-12T12:37:39.430Z,100328.75
2023-01-12T12:40:20.764Z,100330.50
2023-01-12T12:43:18.080Z,100337.97
2023-01-12T12:45:55.320Z,100342.25
2023-01-12T12:48:30.519Z,100344.75
2023-01-12T12:51:02.894Z,100337.97
2023-01-12T12:53:35.799Z,100328.03
2023-01-12T12:56:06.035Z,100300.31
2023-01-12T12:58:42.169Z,100306.84
2023-01-12T13:01:38.539Z,100333.31
2023-01-12T13:04:10.752Z,100318.56
2023-01-12T13:06:40.838Z,100325.84
2023-01-12T13:09:41.179Z,100331.72
2023-01-12T13:12:32.639Z,100329.19
2023-01-12T13:15:22.559Z,100326.91
2023-01-12T13:17:52.927Z,100315.63
2023-01-12T13:21:01.442Z,100313.78
2023-01-12T13:23:46.865Z,100308.91
2023-01-12T13:26:43.555Z,100315.47
2023-01-12T13:29:49.026Z,100322.91
2023-01-12T13:32:49.742Z,100315.53
2023-01-12T13:35:50.461Z,100322.94
2023-01-12T13:38:28.673Z,100299.91
2023-01-12T13:41:04.745Z,100313.13
2023-01-12T13:43:38.906Z,100311.53
2023-01-12T13:46:14.587Z,100311.59
2023-01-12T13:48:45.809Z,100305.81
2023-01-12T13:51:17.225Z,100301.75
2023-01-12T13:53:44.604Z,100307.53
2023-01-12T13:56:20.035Z,100290.19
2023-01-12T13:58:58.257Z,100310.03
2023-01-12T14:01:28.685Z,100305.94
2023-01-12T14:04:21.751Z,100300.91
2023-01-12T14:06:59.281Z,100283.72
2023-01-12T14:09:39.585Z,100274.59
2023-01-12T14:12:38.441Z,100287.13
2023-01-12T14:15:39.688Z,100289.69
2023-01-12T14:18:12.023Z,100243.88
2023-01-12T14:20:46.256Z,100279.16
2023-01-12T14:23:20.007Z,100275.84
2023-01-12T14:26:03.346Z,100275.09
2023-01-12T14:28:31.714Z,100275.97
2023-01-12T14:31:01.156Z,100278.47
2023-01-12T14:33:31.928Z,100259.53
2023-01-12T14:36:04.622Z,100280.94
2023-01-12T14:38:35.276Z,100271.03
2023-01-12T14:41:05.947Z,100276.81
2023-01-12T14:43:59.050Z,100269.34
2023-01-12T14:46:30.772Z,100270.22
2023-01-12T14:49:01.200Z,100280.94
2023-01-12T14:51:35.321Z,100276.81
2023-01-12T14:54:17.648Z,100273.44
2023-01-12T14:56:50.518Z,100284.19
2023-01-12T14:59:23.565Z,100260.19
2023-01-12T15:02:07.495Z,100237.97
2023-01-12T15:04:35.133Z,100261.09
2023-01-12T15:07:04.802Z,100242.22
2023-01-12T15:09:34.187Z,100249.63
2023-01-12T15:12:33.609Z,100260.41
2023-01-12T15:15:14.966Z,100258.72
2023-01-12T15:18:02.548Z,100252.03
2023-01-12T15:20:52.281Z,100252.09
2023-01-12T15:23:47.601Z,100253.81
2023-01-12T15:26:14.952Z,100251.25
2023-01-12T15:28:42.417Z,100247.13
2023-01-12T15:31:19.360Z,100246.31
2023-01-12T15:33:48.484Z,100238.81
2023-01-12T15:36:16.112Z,100247.19
2023-01-12T15:38:43.718Z,100253.69
2023-01-12T15:41:16.834Z,100245.56
2023-01-12T15:43:44.355Z,100267.06
2023-01-12T15:46:17.899Z,100251.50
2023-01-12T15:48:45.467Z,100256.31
2023-01-12T15:51:16.059Z,100251.34
2023-01-12T15:53:43.581Z,100255.44
2023-01-12T15:56:15.438Z,100258.78
2023-01-12T15:58:42.712Z,100257.91
2023-01-12T16:01:15.384Z,100243.00
2023-01-12T16:04:07.244Z,100245.50
2023-01-12T16:06:32.607Z,100244.53
2023-01-12T16:09:01.138Z,100226.50
2023-01-12T16:11:28.478Z,100239.53
2023-01-12T16:13:56.006Z,100236.22
2023-01-12T16:16:25.178Z,100235.34
2023-01-12T16:18:52.770Z,100223.75
2023-01-12T16:21:23.280Z,100226.16
2023-01-12T16:23:52.292Z,100236.94
2023-01-12T16:26:19.525Z,100240.25
2023-01-12T16:28:47.134Z,100233.63
2023-01-12T16:31:15.295Z,100226.94
2023-01-12T16:33:44.083Z,100210.50
2023-01-12T16:36:13.190Z,100236.81
2023-01-12T16:38:40.970Z,100239.28
2023-01-12T16:41:11.679Z,100238.44
2023-01-12T16:43:39.230Z,100235.13
2023-01-12T16:46:07.108Z,100241.75
2023-01-12T16:48:35.364Z,100227.66
2023-01-12T16:51:02.700Z,100235.00
2023-01-12T16:53:29.971Z,100225.06
2023-01-12T16:56:02.680Z,100218.34
2023-01-12T16:58:31.621Z,100219.03
2023-01-12T17:01:00.535Z,100223.38
2023-01-12T17:03:28.355Z,100205.91
2023-01-12T17:05:58.515Z,100215.09
2023-01-12T17:08:26.190Z,100215.13
2023-01-12T17:10:53.494Z,100203.53
2023-01-12T17:13:20.982Z,100196.13
2023-01-12T17:15:52.365Z,100196.81
2023-01-12T17:18:19.876Z,100194.34
2023-01-12T17:20:47.437Z,100196.03
2023-01-12T17:23:14.906Z,100204.34
2023-01-12T17:25:42.186Z,100201.03
2023-01-12T17:28:09.482Z,100207.66
2023-01-12T17:30:39.566Z,100210.06
2023-01-12T17:33:08.319Z,100189.28
2023-01-12T17:35:36.096Z,100199.28
2023-01-12T17:38:03.819Z,100201.78
2023-01-12T17:40:31.903Z,100197.63
2023-01-12T17:43:08.273Z,100204.25
2023-01-12T17:45:41.979Z,100195.16
2023-01-12T17:48:18.189Z,100193.41
2023-01-12T17:50:46.183Z,100191.03
2023-01-12T17:53:14.653Z,100206.66
2023-01-12T17:55:48.595Z,100201.69
2023-01-12T17:58:18.705Z,100206.69
2023-01-12T18:00:46.257Z,100205.78
2023-01-12T18:03:15.024Z,100216.47
2023-01-12T18:05:44.594Z,100201.56
2023-01-12T18:08:12.508Z,100200.72
2023-01-12T18:11:01.554Z,100195.72
2023-01-12T18:13:29.022Z,100198.97
2023-01-12T18:16:00.443Z,100197.31
2023-01-12T18:18:32.097Z,100194.84
2023-01-12T18:21:06.589Z,100194.91
2023-01-12T18:23:34.693Z,100189.88
2023-01-12T18:26:03.076Z,100191.59
2023-01-12T18:28:30.549Z,100185.03
2023-01-12T18:31:02.520Z,100199.81
2023-01-12T18:33:31.197Z,100203.88
2023-01-12T18:35:58.719Z,100200.53
2023-01-12T18:38:28.918Z,100206.25
2023-01-12T18:41:14.700Z,100177.38
2023-01-12T18:43:44.112Z,100185.63
2023-01-12T18:46:12.522Z,100185.56
2023-01-12T18:48:43.588Z,100180.00
2023-01-12T18:51:29.579Z,100192.13
2023-01-12T18:53:57.131Z,100182.28
2023-01-12T18:56:24.994Z,100192.16
2023-01-12T18:58:53.057Z,100188.09
2023-01-12T19:01:22.488Z,100202.88
2023-01-12T19:03:53.084Z,100197.06
2023-01-12T19:06:21.680Z,100188.13
2023-01-12T19:09:08.096Z,100187.19
2023-01-12T19:11:35.785Z,100192.84
2023-01-12T19:14:22.543Z,100196.31
2023-01-12T19:17:08.126Z,100193.66
2023-01-12T19:19:37.297Z,100188.78
2023-01-12T19:22:23.338Z,100184.56
2023-01-12T19:25:09.481Z,100192.03
2023-01-12T19:27:55.499Z,100189.59
2023-01-12T19:30:22.829Z,100187.03
2023-01-12T19:32:50.099Z,100158.09
2023-01-12T19:35:19.149Z,100187.84
2023-01-12T19:37:47.370Z,100186.28
2023-01-12T19:40:27.532Z,100181.25
2023-01-12T19:43:14.472Z,100181.25
2023-01-12T19:45:43.130Z,100187.28
2023-01-12T19:48:11.393Z,100181.97
2023-01-12T19:50:41.117Z,100199.47
2023-01-12T19:53:11.652Z,100201.13
2023-01-12T19:55:41.478Z,100201.13
2023-01-12T19:58:09.490Z,100197.06
2023-01-12T20:00:37.856Z,100215.16
2023-01-12T20:03:05.354Z,100193.50
2023-01-12T20:05:32.859Z,100200.13
2023-01-12T20:08:01.654Z,100203.50
2023-01-12T20:10:29.137Z,100194.41
2023-01-12T20:12:57.480Z,100182.88
2023-01-12T20:15:24.898Z,100181.25
2023-01-12T20:17:52.401Z,100180.38
2023-01-12T20:20:20.308Z,100186.09
2023-01-12T20:22:49.921Z,100189.63
2023-01-12T20:25:18.880Z,100187.84
2023-01-12T20:27:48.336Z,100185.47
2023-01-12T20:30:18.172Z,100181.25
2023-01-12T20:32:48.649Z,100195.25
2023-01-12T20:35:19.030Z,100174.59
2023-01-12T20:37:46.380Z,100188.47
2023-01-12T20:40:15.108Z,100193.50
2023-01-12T20:42:45.226Z,100187.69
2023-01-12T20:45:14.083Z,100193.41
2023-01-12T20:47:41.836Z,100187.59
2023-01-12T20:50:13.763Z,100181.78
2023-01-12T20:52:41.525Z,100183.47
2023-01-12T20:55:09.149Z,100197.63
2023-01-12T20:57:39.019Z,100182.59
2023-01-12T21:00:09.620Z,100175.16
2023-01-12T21:02:37.323Z,100176.91
2023-01-12T21:05:05.436Z,100181.88
2023-01-12T21:07:32.766Z,100183.47
2023-01-12T21:10:00.666Z,100173.59
2023-01-12T21:12:30.864Z,100189.25
2023-01-12T21:14:58.092Z,100182.59
2023-01-12T21:17:27.053Z,100190.75
2023-01-12T21:19:54.487Z,100181.72
2023-01-12T21:22:21.826Z,100176.72
2023-01-12T21:24:50.529Z,100189.94
2023-01-12T21:27:20.033Z,100180.06
2023-01-12T21:29:54.949Z,100170.97
2023-01-12T21:32:29.821Z,100182.56
2023-01-12T21:34:59.761Z,100179.22
2023-01-12T21:37:27.069Z,100172.38
2023-01-12T21:39:56.503Z,100178.19
2023-01-12T21:42:42.604Z,100151.50
2023-01-12T21:45:10.372Z,100168.25
2023-01-12T21:47:37.634Z,100175.75
2023-01-12T21:50:06.888Z,100174.00
2023-01-12T21:52:34.729Z,100181.53
2023-01-12T21:55:02.151Z,100175.63
2023-01-12T21:57:30.829Z,100177.38
2023-01-12T21:59:58.041Z,100174.88
2023-01-12T22:02:25.684Z,100179.78
2023-01-12T22:04:52.901Z,100168.09
2023-01-12T22:07:21.645Z,100157.31
2023-01-12T22:09:48.851Z,100156.53
2023-01-12T22:12:16.162Z,100167.25
2023-01-12T22:14:43.549Z,100168.91
2023-01-12T22:17:10.845Z,100169.72
2023-01-12T22:19:39.490Z,100168.00
2023-01-12T22:22:07.071Z,100164.66
2023-01-12T22:24:35.805Z,100162.97
2023-01-12T22:27:03.571Z,100162.09
2023-01-12T22:29:30.757Z,100156.25
2023-01-12T22:31:58.257Z,100166.22
2023-01-12T22:34:26.068Z,100140.50
2023-01-12T22:36:53.219Z,100142.16
2023-01-12T22:39:20.526Z,100147.22
2023-01-12T22:41:50.830Z,100165.31
2023-01-12T22:44:19.188Z,100161.88
2023-01-12T22:46:46.640Z,100164.38
2023-01-12T22:49:13.956Z,100152.66
2023-01-12T22:51:41.335Z,100161.84
2023-01-12T22:54:08.966Z,100155.25
2023-01-12T22:56:36.871Z,100144.41
2023-01-12T22:59:05.532Z,100147.00
2023-01-12T23:01:33.703Z,100157.00
2023-01-12T23:04:01.158Z,100160.97
2023-01-12T23:06:28.644Z,100164.44
2023-01-12T23:08:56.120Z,100151.84
2023-01-12T23:11:25.884Z,100154.50
2023-01-12T23:13:55.071Z,100154.50
2023-01-12T23:16:24.745Z,100152.03
2023-01-12T23:18:53.052Z,100157.84
2023-01-12T23:21:22.607Z,100146.91
2023-01-12T23:23:52.126Z,100133.69
2023-01-12T23:26:20.938Z,100138.53
2023-01-12T23:28:50.371Z,100151.78
2023-01-12T23:31:19.176Z,100146.81
2023-01-12T23:33:48.607Z,100116.94
2023-01-12T23:36:18.831Z,100123.59
2023-01-12T23:38:46.345Z,100120.19
2023-01-12T23:41:15.462Z,100121.91
2023-01-12T23:43:43.425Z,100120.19
2023-01-12T23:46:11.502Z,100128.47
2023-01-12T23:48:41.164Z,100083.56
2023-01-12T23:51:10.350Z,100124.34
2023-01-12T23:53:40.519Z,100129.28
2023-01-12T23:56:10.511Z,100128.47
2023-01-12T23:58:38.404Z,100118.44
